Tiempo atmosférico en la estación meteorológica de Cillórigo de Liébana, Tama, Cantabria (250 m.)



Fecha
DESCASC
Temp. máxima en grados centígrados (hora)
DESCASC
Temp. mínima en grados centígrados (hora)
DESCASC
Temp. media en grados centígrados
DESCASC
Racha de viento máxima en m/sg (hora)
DESCASC
Velocidad máxima media en intervalos de 10 minutos(hora)
DESCASC
Precipitaciones diarias en mm
DESCASC
Precipitaciones de 00:00 a 06:00 en mm
DESCASC
Precipitaciones de 06:00 a 12:00 en mm
DESCASC
Precipitaciones de 12:00 a 18:00 en mm
DESCASC
Precipitaciones de 18:00 a 24:00 en mm
DESCASC
22-04-2019 21.7 (15:50) 4.4 (07:40) 13.1 8.33 (13:00) 4.17 (23:20) 0 0 0 0 0
21-04-2019 19.3 (14:30) 5.6 (05:40) 12.4 8.61 (16:00) 4.17 (15:20) 0 0 0 0 0
20-04-2019 22.2 (16:00) 5.7 (07:00) 14 10 (15:00) 5 (14:40) 0 0 0 0 0
19-04-2019 20 (19:10) 10.7 (23:59) 15.3 6.94 (18:10) 3.61 (13:40) 10.4 10.4 0 0 0
18-04-2019 19.9 (00:10) 11.1 (00:00) 15.5 13.61 (00:10) 7.22 (00:10) 10.6 0 0 2.2 8.4
17-04-2019 24.9 (15:40) 10.1 (00:00) 17.5 16.67 (22:00) 6.94 (21:10) 0 0 0 0 0
16-04-2019 20 (16:10) 8.7 (00:00) 14.3 5.83 (17:40) 3.89 (17:40) 0.2 0.2 0 0 0
15-04-2019 24.1 (12:50) 9.7 (00:00) 16.9 12.5 (18:10) 6.39 (16:50) 6.6 0 0 1.8 4.8
14-04-2019 22.5 (15:50) 7.9 (00:00) 15.2 9.44 (14:10) 5.28 (16:30) 0 0 0 0 0
13-04-2019 21.6 (16:30) 2.3 (00:00) 12 10.83 (18:00) 5.56 (18:20) 0 0 0 0 0
12-04-2019 16.8 (15:50) 2.1 (00:00) 9.4 9.17 (16:30) 5 (17:50) 0 0 0 0 0
11-04-2019 14.6 (15:40) 3.1 (00:00) 8.9 11.67 (14:20) 5 (17:30) 0.2 0.2 0 0 0
10-04-2019 13.6 (16:40) 3.5 (00:00) 8.6 8.61 (17:00) 4.17 (16:50) 7.6 1 5.6 0.2 0.8
09-04-2019 15.4 (13:20) 3.6 (00:00) 9.5 10 (15:20) 4.72 (15:20) 1.6 0 0 0 1.6
08-04-2019 15.3 (16:50) 6.1 (00:00) 10.7 11.39 (18:00) 5.28 (13:10) 0 0 0 0 0
07-04-2019 15.8 (14:50) 4.1 (00:00) 10 7.78 (16:50) 3.89 (16:50) 2.2 1.8 0.2 0 0.2
06-04-2019 15.5 (15:50) 0.2 (00:00) 7.9 10.83 (18:40) 5.83 (18:40) 4 0 0 0 4
05-04-2019 15.8 (16:50) 4 (00:00) 9.9 11.39 (17:50) 5 (17:50) 0 0 0 0 0
04-04-2019 14.3 (16:10) 0.4 (00:00) 7.4 8.61 (01:30) 4.17 (14:50) 3.8 3 0.8 0 0
03-04-2019 10.4 (00:00) 1.5 (00:00) 5.9 9.72 (13:40) 4.44 (13:40) 14.4 0.4 1.4 7 5.6
02-04-2019 15.8 (14:00) 0.2 (00:00) 8 10.28 (16:00) 4.17 (14:40) 0 0 0 0 0
01-04-2019 18.1 (16:30) -0.1 (00:00) 9 9.72 (17:10) 4.72 (18:40) 0 0 0 0 0
31-03-2019 21.2 (16:20) 2.6 (00:00) 11.9 8.89 (18:30) 3.89 (14:20) 0 0 0 0 0
30-03-2019 22.5 (14:20) 0.9 (00:00) 11.7 9.72 (18:00) 4.72 (15:50) 0 0 0 0 0
29-03-2019 19.8 (14:40) -0.5 (-00:0) 9.6 10.83 (16:40) 5.83 (17:30) 0 0 0 0 0
28-03-2019 17.4 (14:50) -1.4 (-00:0) 8 12.22 (16:50) 5 (16:20) 0 0 0 0 0
27-03-2019 17 (14:30) -2.2 (-00:0) 7.4 13.89 (16:30) 6.39 (18:10) 0 0 0 0 0
26-03-2019 16 (13:40) 1 (00:00) 8.5 11.11 (14:40) 5.28 (14:50) 0 0 0 0 0
25-03-2019 14.7 (13:50) 2.5 (00:00) 8.6 11.11 (20:10) 5.56 (16:10) 0 0 0 0 0

Gráficas

Temp. máximas Temp. mínimas Temp. medias Precipitaciones Rachas de viento máximas Velocidades máximas media en intervalos de 10 minutos

Datos horarios

Fecha y hora oficial Temperatura (ºC) Velocidad del viento (km/h) Dirección del viento Racha (km/h) Dirección de racha Precipitación (mm) Presión (hPa) Tendencia (hPa) Humedad (%)
2019-04-23 23:00:00 9 3 Sudoeste 12 Oeste 0 -- -- 80
2019-04-23 22:00:00 10.5 6 Oeste 26 Norte 0 -- -- 67
2019-04-23 21:00:00 10.8 13 Norte 32 Norte 0 -- -- 60
2019-04-23 20:00:00 12.5 7 Norte 23 Sudeste 0 -- -- 64
2019-04-23 19:00:00 13.8 19 Sur 43 Sudeste 0 -- -- 49
2019-04-23 18:00:00 17.9 10 Sudeste 21 Sudeste 0 -- -- 31
2019-04-23 17:00:00 16.3 10 Oeste 26 Oeste 0 -- -- 34
2019-04-23 16:00:00 14.6 10 Norte 23 Nordeste 0 -- -- 62
2019-04-23 15:00:00 13.9 9 Norte 22 Norte 0 -- -- 68
2019-04-23 14:00:00 13.6 11 Norte 26 Nordeste 0 -- -- 72
2019-04-23 13:00:00 14.7 9 Norte 19 Norte 0 -- -- 67
2019-04-23 12:00:00 15.1 7 Norte 13 Nordeste 0 -- -- 70
2019-04-23 11:00:00 13.5 7 Sur 12 Sur 0 -- -- 76
2019-04-23 10:00:00 13 2 Sur 5 Sur 0 -- -- 81
2019-04-23 09:00:00 11.8 0 Calma 8 Este 0 -- -- 85
2019-04-23 08:00:00 11.6 2 Noroeste 8 Sur 0 -- -- 82
2019-04-23 07:00:00 12 0 Calma 13 Sudeste 0 -- -- 76
2019-04-23 06:00:00 12.5 0 Calma 15 Sur 0 -- -- 72
2019-04-23 05:00:00 13.4 10 Sur 15 Sudeste 0 -- -- 65
2019-04-23 04:00:00 14.1 8 Sur 17 Sudeste 0 -- -- 62
2019-04-23 03:00:00 14.6 12 Sudeste 20 Sur 0 -- -- 58
2019-04-23 02:00:00 15 10 Sudeste 16 Sur 0 -- -- 60
2019-04-23 01:00:00 14 12 Sudeste 21 Sur 0 -- -- 62
2019-04-23 00:00:00 13.7 11 Sudeste 24 Sudeste 0 -- -- 63
2019-04-22 23:00:00 14 15 Sudeste 24 Sudeste 0 -- -- 63
2019-04-22 22:00:00 15.1 10 Sur 17 Sur 0 -- -- 59
2019-04-22 21:00:00 16.7 7 Sur 14 Sur 0 -- -- 53
2019-04-22 20:00:00 19.1 4 Sur 12 Sudoeste 0 -- -- 45
2019-04-22 19:00:00 20.2 0 Calma 13 Sur 0 -- -- 46
2019-04-22 18:00:00 20.1 8 Sur 21 Sur 0 -- -- 40
2019-04-22 17:00:00 19.2 8 Sudoeste 27 Oeste 0 -- -- 42
2019-04-22 16:00:00 21 8 Sudoeste 28 Noroeste 0 -- -- 37
2019-04-22 15:00:00 20.1 9 Oeste 23 Sudoeste 0 -- -- 39
2019-04-22 14:00:00 19.8 7 Sur 18 Sudeste 0 -- -- 38
2019-04-22 13:00:00 19.8 14 Sudeste 30 Sur 0 -- -- 38
2019-04-22 12:00:00 16.3 0 Calma 5 Oeste 0 -- -- 58
2019-04-22 11:00:00 12.3 0 Calma 5 Sudeste 0 -- -- 71
2019-04-22 10:00:00 8.4 0 Calma 3 Este 0 -- -- 89
2019-04-22 09:00:00 5 0 Calma 3 Noroeste 0 -- -- 96
2019-04-22 08:00:00 4.4 0 Calma 3 Sudeste 0 -- -- 95
2019-04-22 07:00:00 4.8 0 Calma 3 Este 0 -- -- 94
2019-04-22 06:00:00 5.3 0 Calma 3 Noroeste 0 -- -- 93
2019-04-22 05:00:00 6.2 0 Calma 2 Oeste 0 -- -- 92
2019-04-22 04:00:00 7.2 0 Calma 4 Oeste 0 -- -- 90
2019-04-22 03:00:00 8.2 0 Calma 4 Noroeste 0 -- -- 88
2019-04-22 02:00:00 8.8 2 Sudoeste 8 Sudeste 0 -- -- 86
2019-04-22 01:00:00 9.9 2 Sur 9 Sudeste 0 -- -- 78
2019-04-22 00:00:00 11.2 7 Sudeste 13 Sur 0 -- -- 73
2019-04-21 23:00:00 12.7 7 Sudeste 20 Norte 0 -- -- 67
2019-04-21 22:00:00 13.7 12 Norte 22 Norte 0 -- -- 62
2019-04-21 21:00:00 14 5 Norte 23 Norte 0 -- -- 59
2019-04-21 20:00:00 15.3 10 Norte 26 Oeste 0 -- -- 55
2019-04-21 19:00:00 16.2 12 Norte 27 Norte 0 -- -- 52
2019-04-21 18:00:00 17.3 10 Norte 30 Norte 0 -- -- 49
2019-04-21 17:00:00 18.5 9 Norte 28 Norte 0 -- -- 47
2019-04-21 16:00:00 18.5 13 Noroeste 31 Noroeste 0 -- -- 46
2019-04-21 15:00:00 19.1 10 Norte 26 Norte 0 -- -- 45
2019-04-21 14:00:00 18.9 9 Nordeste 29 Nordeste 0 -- -- 42
2019-04-21 13:00:00 18.3 13 Nordeste 27 Nordeste 0 -- -- 42
2019-04-21 12:00:00 14.6 3 Noroeste 11 Noroeste 0 -- -- 61
2019-04-21 11:00:00 12.8 3 Este 5 Nordeste 0 -- -- 73
2019-04-21 10:00:00 8.6 4 Noroeste 6 Noroeste 0 -- -- 87
2019-04-21 09:00:00 7.1 0 Calma 4 Oeste 0 -- -- 95
2019-04-21 08:00:00 6.2 3 Norte 5 Noroeste 0 -- -- 95
2019-04-21 07:00:00 5.6 0 Calma 3 Oeste 0 -- -- 94
2019-04-21 06:00:00 5.6 0 Calma 3 Sudeste 0 -- -- 94
2019-04-21 05:00:00 5.9 2 Noroeste 5 Noroeste 0 -- -- 92
2019-04-21 04:00:00 6.2 0 Calma 5 Nordeste 0 -- -- 92
2019-04-21 03:00:00 6.9 2 Noroeste 4 Sudeste 0 -- -- 90
2019-04-21 02:00:00 7.5 0 Calma 6 Sur 0 -- -- 88
2019-04-21 01:00:00 8.1 2 Noroeste 4 Oeste 0 -- -- 84
2019-04-21 00:00:00 9.3 0 Calma 4 Sudoeste 0 -- -- 76
2019-04-20 23:00:00 12.1 6 Sur 11 Sudeste 0 -- -- 62
2019-04-20 22:00:00 14.7 6 Sudeste 21 Norte 0 -- -- 48
2019-04-20 21:00:00 17.1 16 Norte 28 Norte 0 -- -- 34
2019-04-20 20:00:00 17.6 11 Norte 26 Norte 0 -- -- 37
2019-04-20 19:00:00 19.7 12 Norte 31 Norte 0 -- -- 33
2019-04-20 18:00:00 19.3 12 Norte 27 Noroeste 0 -- -- 38
2019-04-20 17:00:00 20.7 13 Norte 30 Noroeste 0 -- -- 36
2019-04-20 16:00:00 22.2 11 Noroeste 32 Noroeste 0 -- -- 37
2019-04-20 15:00:00 21.5 16 Noroeste 36 Noroeste 0 -- -- 41
2019-04-20 14:00:00 21.4 14 Norte 31 Noroeste 0 -- -- 40
2019-04-20 13:00:00 20.7 13 Noroeste 29 Norte 0 -- -- 40
2019-04-20 12:00:00 16.9 2 Nordeste 5 Nordeste 0 -- -- 66
2019-04-20 11:00:00 13.2 0 Calma 4 Este 0 -- -- 80
2019-04-20 10:00:00 9.8 2 Este 4 Sur 0 -- -- 95
2019-04-20 09:00:00 7.1 0 Calma 3 Sudeste 0 -- -- 98
2019-04-20 08:00:00 6 0 Calma 6 Sur 0 -- -- 98
2019-04-20 07:00:00 5.7 0 Calma 4 Sudoeste 0 -- -- 97
2019-04-20 06:00:00 6 0 Calma 4 Sudoeste 0 -- -- 97
2019-04-20 05:00:00 6.5 0 Calma 4 Oeste 0 -- -- 97
2019-04-20 04:00:00 7.1 2 Sur 4 Sudeste 0 -- -- 96
2019-04-20 03:00:00 7.7 0 Calma 4 Sur 0 -- -- 95
2019-04-20 02:00:00 8.5 0 Calma 4 Oeste 0 -- -- 94
2019-04-20 01:00:00 9.5 0 Calma 5 Sudoeste 0 -- -- 91
2019-04-20 00:00:00 10.7 0 Calma 8 Sur 0 -- -- 89
2019-04-19 23:00:00 12.9 8 Sudeste 14 Sudeste 0 -- -- 84
2019-04-19 22:00:00 14.3 3 Sur 9 Norte 0 -- -- 78
2019-04-19 21:00:00 16.8 3 Oeste 14 Norte 0 -- -- 66
2019-04-19 20:00:00 19 7 Noroeste 15 Noroeste 0 -- -- 57
2019-04-19 19:00:00 19.9 7 Norte 25 Norte 0 -- -- 56
2019-04-19 18:00:00 19.5 11 Noroeste 21 Norte 0 -- -- 60
2019-04-19 17:00:00 19.2 3 Oeste 14 Noroeste 0 -- -- 62
2019-04-19 16:00:00 19.1 3 Norte 7 Norte 0 -- -- 58
2019-04-19 15:00:00 18.3 4 Norte 17 Sudeste 0 -- -- 67
2019-04-19 14:00:00 17.1 6 Sur 21 Sur 0 -- -- 71
2019-04-19 13:00:00 15.9 10 Sur 18 Sur 0 -- -- 79
2019-04-19 12:00:00 14.4 4 Sudeste 8 Sudoeste 0 -- -- 85
2019-04-19 11:00:00 12.8 2 Sudeste 5 Sur 0 -- -- 91
2019-04-19 10:00:00 11.6 0 Calma 6 Noroeste 0 -- -- 97
2019-04-19 09:00:00 11 2 Sudeste 4 Sudeste 0 -- -- 97
2019-04-19 08:00:00 10.8 0 Calma 9 Sudeste 0 -- -- 97
2019-04-19 07:00:00 11 4 Este 10 Este 0 -- -- 97
2019-04-19 06:00:00 11.1 2 Este 8 Sudeste 0 -- -- 96
2019-04-19 05:00:00 11 7 Sudeste 12 Sudeste 0.4 -- -- 97
2019-04-19 04:00:00 11 3 Sur 9 Sur 2 -- -- 97
2019-04-19 03:00:00 10.9 5 Sur 7 Sur 3.6 -- -- 97
2019-04-19 02:00:00 11 5 Sudeste 9 Sur 3.6 -- -- 96
2019-04-19 01:00:00 11.1 2 Sur 9 Sudeste 0.8 -- -- 95
2019-04-19 00:00:00 11.1 8 Sudeste 11 Sudeste 0.8 -- -- 95
2019-04-18 23:00:00 11.2 5 Sur 20 Norte 0.8 -- -- 93
2019-04-18 22:00:00 11.5 7 Noroeste 19 Norte 0.4 -- -- 87
2019-04-18 21:00:00 11.9 4 Oeste 6 Oeste 2.2 -- -- 93
2019-04-18 20:00:00 12.5 3 Norte 5 Sudeste 2.8 -- -- 92
2019-04-18 19:00:00 13.2 2 Sudeste 7 Nordeste 1.4 -- -- 90
2019-04-18 18:00:00 13.9 4 Norte 12 Nordeste 0 -- -- 85
2019-04-18 17:00:00 14.5 4 Nordeste 7 Nordeste 0.2 -- -- 80
2019-04-18 16:00:00 14 0 Calma 6 Oeste 0.6 -- -- 84
2019-04-18 15:00:00 13.7 0 Calma 9 Noroeste 1.4 -- -- 84
2019-04-18 14:00:00 14 5 Noroeste 15 Nordeste 0 -- -- 78
2019-04-18 13:00:00 14.7 5 Norte 9 Norte 0 -- -- 69
2019-04-18 12:00:00 14.3 3 Noroeste 8 Norte 0 -- -- 70
2019-04-18 11:00:00 13.8 4 Norte 12 Norte 0 -- -- 71
2019-04-18 10:00:00 13.4 3 Oeste 11 Oeste 0 -- -- 74
2019-04-18 09:00:00 12.5 0 Calma 9 Sur 0 -- -- 82
2019-04-18 08:00:00 12.9 2 Sudeste 12 Sur 0 -- -- 79
2019-04-18 07:00:00 13.7 6 Sudeste 9 Sudeste 0 -- -- 71
2019-04-18 06:00:00 14.8 5 Sur 16 Sur 0 -- -- 62
2019-04-18 05:00:00 15 4 Sur 24 Sudoeste 0 -- -- 69
2019-04-18 04:00:00 16.4 10 Sur 20 Oeste 0 -- -- 66
2019-04-18 03:00:00 16.9 5 Sur 26 Sudeste 0 -- -- 67
2019-04-18 02:00:00 18.8 17 Sudeste 41 Sudeste 0 -- -- 55
2019-04-18 01:00:00 19.6 14 Sudeste 49 Sudeste 0 -- -- 50
2019-04-18 00:00:00 19.7 17 Sudeste 30 Sudeste 0 -- -- 49
2019-04-17 23:00:00 19.3 6 Sur 39 Sudeste 0 -- -- 51
2019-04-17 22:00:00 21.4 23 Sudeste 60 Sudeste 0 -- -- 41
2019-04-17 21:00:00 21.9 15 Sur 49 Sudeste 0 -- -- 36
2019-04-17 20:00:00 22.7 9 Sudeste 33 Sudeste 0 -- -- 36
2019-04-17 19:00:00 23.2 12 Sudeste 26 Sudeste 0 -- -- 35
2019-04-17 18:00:00 22.9 14 Sudeste 30 Sudeste 0 -- -- 34
2019-04-17 17:00:00 23.7 21 Sudeste 37 Sudeste 0 -- -- 30
2019-04-17 16:00:00 24.5 14 Sudeste 35 Sur 0 -- -- 32
2019-04-17 15:00:00 24.3 12 Sur 39 Sur 0 -- -- 34
2019-04-17 14:00:00 23.3 18 Sur 39 Sudeste 0 -- -- 35
2019-04-17 13:00:00 22.2 7 Sur 16 Sudoeste 0 -- -- 42
2019-04-17 12:00:00 20.1 5 Oeste 15 Sudoeste 0 -- -- 50
2019-04-17 11:00:00 18.4 6 Sudeste 33 Sudeste 0 -- -- 49
2019-04-17 10:00:00 17.5 17 Sudeste 32 Sudeste 0 -- -- 50
2019-04-17 09:00:00 17.1 18 Sur 38 Sur 0 -- -- 51
2019-04-17 08:00:00 17.2 13 Sur 44 Sudeste 0 -- -- 50
2019-04-17 07:00:00 17.8 21 Sudeste 49 Sudeste 0 -- -- 46
2019-04-17 06:00:00 16.8 16 Sur 32 Sur 0 -- -- 47
2019-04-17 05:00:00 14.4 14 Sudeste 30 Sur 0 -- -- 56
2019-04-17 04:00:00 14.5 14 Sur 27 Sur 0 -- -- 57
2019-04-17 03:00:00 10.5 3 Oeste 17 Sudeste 0 -- -- 84
2019-04-17 02:00:00 10.2 0 Calma 6 Este 0 -- -- 92
2019-04-17 01:00:00 10.7 3 Sur 4 Sudeste 0 -- -- 90
2019-04-17 00:00:00 11.5 0 Calma 4 Sudoeste 0 -- -- 88
2019-04-16 23:00:00 12.4 0 Calma 6 Oeste 0 -- -- 83
2019-04-16 22:00:00 13.6 2 Sudoeste 7 Nordeste 0 -- -- 76
2019-04-16 21:00:00 15.5 2 Noroeste 15 Norte 0 -- -- 74
2019-04-16 20:00:00 17.9 7 Norte 17 Norte 0 -- -- 64
2019-04-16 19:00:00 19.2 6 Noroeste 21 Noroeste 0 -- -- 63
2019-04-16 18:00:00 18.6 9 Norte 21 Norte 0 -- -- 60
2019-04-16 17:00:00 19.5 9 Norte 20 Norte 0 -- -- 58
2019-04-16 16:00:00 19.9 9 Norte 19 Norte 0 -- -- 57
2019-04-16 15:00:00 19.8 7 Norte 19 Nordeste 0 -- -- 60
2019-04-16 14:00:00 18.3 9 Nordeste 15 Norte 0 -- -- 55
2019-04-16 13:00:00 17 4 Nordeste 11 Nordeste 0 -- -- 58
2019-04-16 12:00:00 14.2 3 Nordeste 9 Este 0 -- -- 73
2019-04-16 11:00:00 12 4 Sudeste 9 Sudeste 0 -- -- 80
2019-04-16 10:00:00 9.9 4 Sur 12 Sudeste 0 -- -- 87
2019-04-16 09:00:00 9.1 8 Sudeste 13 Sudeste 0 -- -- 91
2019-04-16 08:00:00 8.8 10 Sudeste 14 Sudeste 0 -- -- 92
2019-04-16 07:00:00 9.2 2 Este 5 Sudeste 0 -- -- 96
2019-04-16 06:00:00 9 0 Calma 5 Oeste 0 -- -- 96
2019-04-16 05:00:00 9 0 Calma 6 Sudoeste 0 -- -- 96
2019-04-16 04:00:00 9.3 0 Calma 4 Sudoeste 0 -- -- 96
2019-04-16 03:00:00 9.9 0 Calma 3 Oeste 0 -- -- 95
2019-04-16 02:00:00 10.5 0 Calma 4 Nordeste 0.2 -- -- 95
2019-04-16 01:00:00 10.6 0 Calma 6 Sudoeste 0 -- -- 94
2019-04-16 00:00:00 10.8 5 Sudeste 15 Sur 3 -- -- 92
2019-04-15 23:00:00 11.8 5 Sur 25 Noroeste 0.8 -- -- 86
2019-04-15 22:00:00 12.5 8 Noroeste 26 Norte 0.6 -- -- 80
2019-04-15 21:00:00 12.9 9 Noroeste 30 Norte 0.2 -- -- 80
2019-04-15 20:00:00 14.2 16 Norte 37 Norte 0.2 -- -- 71
2019-04-15 19:00:00 14.2 19 Norte 45 Norte 0 -- -- 73
2019-04-15 18:00:00 14.6 15 Norte 45 Norte 0.4 -- -- 75
2019-04-15 17:00:00 16.2 18 Norte 41 Norte 0.2 -- -- 75
2019-04-15 16:00:00 18.6 4 Sudoeste 13 Sudoeste 0 -- -- 76
2019-04-15 15:00:00 17.5 10 Sur 27 Sur 1 -- -- 70
2019-04-15 14:00:00 21.1 5 Sur 21 Sur 0.2 -- -- 61
2019-04-15 13:00:00 23.7 7 Sur 21 Sudoeste 0 -- -- 50
2019-04-15 12:00:00 22.5 7 Sur 21 Sur 0 -- -- 49
2019-04-15 11:00:00 21.5 8 Sur 21 Sur 0 -- -- 52
2019-04-15 10:00:00 15.9 3 Noroeste 15 Sur 0 -- -- 79
2019-04-15 09:00:00 15.7 8 Sur 23 Sudeste 0 -- -- 72
2019-04-15 08:00:00 15.4 18 Sudeste 28 Sur 0 -- -- 72
2019-04-15 07:00:00 11.8 3 Sur 13 Sur 0 -- -- 94
2019-04-15 06:00:00 10.8 0 Calma 4 Sudeste 0 -- -- 94
2019-04-15 05:00:00 10.6 3 Sudeste 6 Noroeste 0 -- -- 96
2019-04-15 04:00:00 9.8 3 Oeste 6 Sudeste 0 -- -- 96
2019-04-15 03:00:00 9.9 0 Calma 8 Sudoeste 0 -- -- 93
2019-04-15 02:00:00 10.6 2 Norte 7 Noroeste 0 -- -- 92
2019-04-15 01:00:00 11.5 0 Calma 7 Sudeste 0 -- -- 90
2019-04-15 00:00:00 12.8 3 Sudeste 5 Oeste 0 -- -- 88
2019-04-14 23:00:00 14.1 3 Sur 6 Sur 0 -- -- 84
2019-04-14 22:00:00 16 4 Sur 8 Sudoeste 0 -- -- 77
2019-04-14 21:00:00 18.1 2 Sudoeste 15 Norte 0 -- -- 72
2019-04-14 20:00:00 19.8 4 Noroeste 22 Norte 0 -- -- 62
2019-04-14 19:00:00 20.4 10 Noroeste 32 Norte 0 -- -- 60
2019-04-14 18:00:00 21.6 14 Noroeste 33 Norte 0 -- -- 56
2019-04-14 17:00:00 21.7 13 Norte 33 Norte 0 -- -- 53
2019-04-14 16:00:00 22.4 17 Norte 31 Norte 0 -- -- 52
2019-04-14 15:00:00 22.1 18 Norte 34 Noroeste 0 -- -- 49
2019-04-14 14:00:00 21.4 13 Norte 26 Noroeste 0 -- -- 49
2019-04-14 13:00:00 20.1 6 Nordeste 15 Este 0 -- -- 52
2019-04-14 12:00:00 15.6 3 Noroeste 7 Oeste 0 -- -- 64
2019-04-14 11:00:00 12 0 Calma 5 Noroeste 0 -- -- 78
2019-04-14 10:00:00 10.2 0 Calma 5 Sudeste 0 -- -- 82
2019-04-14 09:00:00 8.6 3 Noroeste 6 Noroeste 0 -- -- 91
2019-04-14 08:00:00 8.1 2 Sudeste 4 Sudoeste 0 -- -- 89
2019-04-14 07:00:00 8.5 0 Calma 9 Sur 0 -- -- 88
2019-04-14 06:00:00 9.3 3 Sur 6 Sur 0 -- -- 87
2019-04-14 05:00:00 10.2 4 Sur 6 Sur 0 -- -- 84
2019-04-14 04:00:00 10.2 3 Norte 5 Nordeste 0 -- -- 83
2019-04-14 03:00:00 10.5 0 Calma 3 Sudoeste 0 -- -- 79
2019-04-14 02:00:00 11.7 0 Calma 4 Sudeste 0 -- -- 76
2019-04-14 01:00:00 12.5 0 Calma 4 Sudoeste 0 -- -- 72
2019-04-14 00:00:00 13.1 0 Calma 4 Oeste 0 -- -- 70
2019-04-13 23:00:00 14.2 0 Calma 6 Sur 0 -- -- 59
2019-04-13 22:00:00 16.1 4 Sur 21 Norte 0 -- -- 49
2019-04-13 21:00:00 18.1 9 Norte 24 Norte 0 -- -- 37
2019-04-13 20:00:00 19.1 15 Norte 37 Norte 0 -- -- 34
2019-04-13 19:00:00 20.4 16 Norte 39 Norte 0 -- -- 36
2019-04-13 18:00:00 20.9 19 Norte 39 Norte 0 -- -- 35
2019-04-13 17:00:00 21.2 16 Norte 34 Norte 0 -- -- 38
2019-04-13 16:00:00 21.4 18 Norte 39 Norte 0 -- -- 37
2019-04-13 15:00:00 21.3 14 Norte 34 Norte 0 -- -- 40
2019-04-13 14:00:00 20.9 15 Norte 25 Norte 0 -- -- 36
2019-04-13 13:00:00 19.2 6 Norte 11 Nordeste 0 -- -- 39
2019-04-13 12:00:00 15.2 2 Nordeste 5 Noroeste 0 -- -- 56
2019-04-13 11:00:00 10.9 2 Sudeste 4 Oeste 0 -- -- 73
2019-04-13 10:00:00 5.9 0 Calma 3 Nordeste 0 -- -- 97
2019-04-13 09:00:00 2.6 0 Calma 3 Oeste 0 -- -- 97
2019-04-13 08:00:00 2.4 0 Calma 4 Sur 0 -- -- 97
2019-04-13 07:00:00 2.4 0 Calma 4 Sur 0 -- -- 97
2019-04-13 06:00:00 2.9 0 Calma 2 Oeste 0 -- -- 96
2019-04-13 05:00:00 3.3 0 Calma 3 Oeste 0 -- -- 96
2019-04-13 04:00:00 3.8 0 Calma 4 Oeste 0 -- -- 95
2019-04-13 03:00:00 4.4 0 Calma 3 Sur 0 -- -- 94
2019-04-13 02:00:00 5.1 0 Calma 3 Sudeste 0 -- -- 93
2019-04-13 01:00:00 5.9 0 Calma 3 Oeste 0 -- -- 92
2019-04-13 00:00:00 7.1 0 Calma 5 Sudoeste 0 -- -- 89
2019-04-12 23:00:00 8.6 0 Calma 5 Sudoeste 0 -- -- 85
2019-04-12 22:00:00 10.6 4 Sur 8 Sudoeste 0 -- -- 80
2019-04-12 21:00:00 13 2 Sudoeste 26 Noroeste 0 -- -- 72
2019-04-12 20:00:00 14.7 11 Norte 29 Norte 0 -- -- 65
2019-04-12 19:00:00 15.5 16 Noroeste 33 Noroeste 0 -- -- 63
2019-04-12 18:00:00 16.2 16 Norte 33 Noroeste 0 -- -- 62
2019-04-12 17:00:00 16.5 17 Noroeste 33 Noroeste 0 -- -- 60
2019-04-12 16:00:00 16.7 15 Norte 32 Noroeste 0 -- -- 58
2019-04-12 15:00:00 16.4 17 Norte 33 Norte 0 -- -- 55
2019-04-12 14:00:00 16.1 15 Norte 28 Norte 0 -- -- 53
2019-04-12 13:00:00 15.2 8 Noroeste 17 Norte 0 -- -- 55
2019-04-12 12:00:00 13.2 4 Sudoeste 9 Sudoeste 0 -- -- 59
2019-04-12 11:00:00 9.6 0 Calma 6 Este 0 -- -- 72
2019-04-12 10:00:00 6.1 0 Calma 5 Sudeste 0 -- -- 89
2019-04-12 09:00:00 3.2 0 Calma 4 Nordeste 0 -- -- 97
2019-04-12 08:00:00 2.2 0 Calma 2 Sudeste 0 -- -- 96
2019-04-12 07:00:00 2.8 2 Sudeste 3 Sudeste 0 -- -- 95
2019-04-12 06:00:00 3.3 0 Calma 2 Sur 0 -- -- 94
2019-04-12 05:00:00 4.3 0 Calma 3 Noroeste 0 -- -- 93
2019-04-12 04:00:00 5.3 0 Calma 3 Sudoeste 0 -- -- 93
2019-04-12 03:00:00 6.2 0 Calma 7 Sudeste 0 -- -- 89
2019-04-12 02:00:00 7.1 0 Calma 6 Sur 0 -- -- 86
2019-04-12 01:00:00 8.5 3 Sudeste 10 Noroeste 0 -- -- 80
2019-04-12 00:00:00 10.2 4 Noroeste 16 Noroeste 0 -- -- 74
2019-04-11 23:00:00 10.7 7 Noroeste 23 Norte 0 -- -- 71
2019-04-11 22:00:00 10.9 12 Norte 26 Noroeste 0 -- -- 70
2019-04-11 21:00:00 11.3 14 Norte 28 Noroeste 0 -- -- 67
2019-04-11 20:00:00 12.4 14 Noroeste 32 Norte 0 -- -- 62
2019-04-11 19:00:00 13.1 14 Norte 36 Noroeste 0 -- -- 60
2019-04-11 18:00:00 14.5 16 Norte 37 Nordeste 0 -- -- 54
2019-04-11 17:00:00 13.8 14 Norte 32 Norte 0 -- -- 55
2019-04-11 16:00:00 14.4 11 Norte 32 Norte 0 -- -- 55
2019-04-11 15:00:00 14 13 Norte 42 Norte 0 -- -- 54
2019-04-11 14:00:00 13.9 14 Norte 30 Norte 0 -- -- 56
2019-04-11 13:00:00 13.2 12 Norte 26 Norte 0 -- -- 56
2019-04-11 12:00:00 11.1 3 Norte 7 Norte 0 -- -- 79
2019-04-11 11:00:00 7.2 2 Noroeste 5 Noroeste 0 -- -- 98
2019-04-11 10:00:00 4.7 0 Calma 5 Noroeste 0 -- -- 99
2019-04-11 09:00:00 3.4 0 Calma 5 Noroeste 0 -- -- 98
2019-04-11 08:00:00 3.2 2 Norte 4 Nordeste 0 -- -- 98
2019-04-11 07:00:00 4 0 Calma 5 Sudoeste 0 -- -- 98
2019-04-11 06:00:00 3.9 0 Calma 3 Noroeste 0 -- -- 97
2019-04-11 05:00:00 4.2 0 Calma 6 Noroeste 0 -- -- 98
2019-04-11 04:00:00 3.8 3 Oeste 6 Noroeste 0 -- -- 97
2019-04-11 03:00:00 3.8 0 Calma 4 Sur 0 -- -- 96
2019-04-11 02:00:00 4.9 0 Calma 7 Sudeste 0 -- -- 95
2019-04-11 01:00:00 6.3 0 Calma 7 Sudeste 0.2 -- -- 93
2019-04-11 00:00:00 6.5 0 Calma 6 Sur 0 -- -- 92
2019-04-10 23:00:00 7.5 5 Sur 15 Oeste 0 -- -- 88
2019-04-10 22:00:00 9.1 4 Sur 17 Noroeste 0 -- -- 82
2019-04-10 21:00:00 10.8 8 Norte 26 Norte 0 -- -- 69
2019-04-10 20:00:00 11 12 Norte 30 Norte 0.2 -- -- 69
2019-04-10 19:00:00 11.3 12 Norte 27 Norte 0.6 -- -- 75
2019-04-10 18:00:00 12.4 9 Norte 28 Norte 0 -- -- 67
2019-04-10 17:00:00 13 15 Norte 31 Norte 0 -- -- 64
2019-04-10 16:00:00 12.8 11 Norte 21 Nordeste 0 -- -- 67
2019-04-10 15:00:00 11.8 7 Noroeste 13 Noroeste 0 -- -- 68
2019-04-10 14:00:00 11.6 4 Sudoeste 8 Sudeste 0 -- -- 73
2019-04-10 13:00:00 9.4 3 Sur 10 Sudoeste 0.2 -- -- 79
2019-04-10 12:00:00 7.4 4 Sur 6 Sur 0.8 -- -- 94
2019-04-10 11:00:00 5.8 0 Calma 4 Noroeste 2.8 -- -- 97
2019-04-10 10:00:00 5.3 2 Sur 4 Sudoeste 1.4 -- -- 97
2019-04-10 09:00:00 4.8 0 Calma 4 Sur 0.6 -- -- 98
2019-04-10 08:00:00 4 0 Calma 3 Sur 0 -- -- 98
2019-04-10 07:00:00 3.9 0 Calma 9 Sudeste 0 -- -- 96
2019-04-10 06:00:00 4.7 2 Nordeste 9 Sudeste 0 -- -- 97
2019-04-10 05:00:00 4.8 2 Oeste 6 Oeste 0 -- -- 95
2019-04-10 04:00:00 5.9 0 Calma 5 Oeste 0 -- -- 95
2019-04-10 03:00:00 7 0 Calma 8 Oeste 0.2 -- -- 94
2019-04-10 02:00:00 7.9 2 Sudeste 10 Sudeste 0.2 -- -- 93
2019-04-10 01:00:00 8 0 Calma 9 Sudeste 0.6 -- -- 94
2019-04-10 00:00:00 8 3 Noroeste 6 Sur 0 -- -- 93
2019-04-09 23:00:00 8.4 4 Oeste 16 Sudeste 1.4 -- -- 89
2019-04-09 22:00:00 9.3 4 Sudeste 8 Sudoeste 0 -- -- 88
2019-04-09 21:00:00 10.4 5 Sudeste 20 Norte 0.2 -- -- 80
2019-04-09 20:00:00 11.8 8 Norte 23 Noroeste 0 -- -- 62
2019-04-09 19:00:00 12.8 10 Noroeste 20 Norte 0 -- -- 63
2019-04-09 18:00:00 12.8 10 Norte 22 Norte 0 -- -- 62
2019-04-09 17:00:00 13.2 15 Norte 29 Norte 0 -- -- 57
2019-04-09 16:00:00 13.5 12 Norte 36 Norte 0 -- -- 52
2019-04-09 15:00:00 14.7 14 Norte 28 Norte 0 -- -- 55
2019-04-09 14:00:00 12.5 13 Norte 27 Norte 0 -- -- 65
2019-04-09 13:00:00 15 3 Sudoeste 14 Sudeste 0 -- -- 48
2019-04-09 12:00:00 13.7 5 Sudoeste 13 Sur 0 -- -- 53
2019-04-09 11:00:00 12.5 4 Sudeste 12 Sur 0 -- -- 60
2019-04-09 10:00:00 6.8 2 Noroeste 3 Noroeste 0 -- -- 94
2019-04-09 09:00:00 5.3 0 Calma 5 Sudoeste 0 -- -- 96
2019-04-09 08:00:00 4.1 0 Calma 5 Oeste 0 -- -- 95
2019-04-09 07:00:00 4.4 0 Calma 8 Sur 0 -- -- 94
2019-04-09 06:00:00 4.1 0 Calma 5 Sudoeste 0 -- -- 95
2019-04-09 05:00:00 4.3 0 Calma 6 Sur 0 -- -- 94
2019-04-09 04:00:00 4.1 3 Norte 7 Sudeste 0 -- -- 94
2019-04-09 03:00:00 3.6 3 Sudoeste 10 Sudeste 0 -- -- 94
2019-04-09 02:00:00 4.2 0 Calma 6 Sudeste 0 -- -- 93
2019-04-09 01:00:00 5.4 0 Calma 10 Sudeste 0 -- -- 90
2019-04-09 00:00:00 7.1 6 Sudeste 12 Sudeste 0 -- -- 87
2019-04-08 23:00:00 7.9 3 Sur 10 Sur 0 -- -- 85
2019-04-08 22:00:00 9 3 Sur 10 Oeste 0 -- -- 81
2019-04-08 21:00:00 10.9 5 Sur 14 Norte 0 -- -- 75
2019-04-08 20:00:00 12.6 8 Norte 28 Noroeste 0 -- -- 61
2019-04-08 19:00:00 13.1 15 Noroeste 36 Noroeste 0 -- -- 60
2019-04-08 18:00:00 14.1 17 Noroeste 41 Noroeste 0 -- -- 59
2019-04-08 17:00:00 15.1 15 Noroeste 34 Noroeste 0 -- -- 60
2019-04-08 16:00:00 14.2 13 Noroeste 31 Noroeste 0 -- -- 61
2019-04-08 15:00:00 13.9 17 Noroeste 37 Norte 0 -- -- 62
2019-04-08 14:00:00 14.5 14 Norte 33 Norte 0 -- -- 63
2019-04-08 13:00:00 14.2 18 Norte 32 Norte 0 -- -- 63
2019-04-08 12:00:00 13.8 15 Norte 30 Norte 0 -- -- 61
2019-04-08 11:00:00 11.8 3 Este 14 Noroeste 0 -- -- 73
2019-04-08 10:00:00 8.4 0 Calma 9 Sur 0 -- -- 84
2019-04-08 09:00:00 7.1 2 Noroeste 15 Sudeste 0 -- -- 88
2019-04-08 08:00:00 6.3 4 Sudeste 8 Sudoeste 0 -- -- 92
2019-04-08 07:00:00 7 2 Sudeste 5 Este 0 -- -- 88
2019-04-08 06:00:00 7.8 2 Norte 6 Sudeste 0 -- -- 86
2019-04-08 05:00:00 8.6 2 Sur 21 Sudeste 0 -- -- 81
2019-04-08 04:00:00 9.5 9 Sur 19 Sudeste 0 -- -- 74
2019-04-08 03:00:00 9.6 12 Sudeste 19 Sur 0 -- -- 74
2019-04-08 02:00:00 11 7 Sur 19 Oeste 0 -- -- 62
2019-04-08 01:00:00 11 9 Sudoeste 27 Sur 0 -- -- 60
2019-04-08 00:00:00 10.9 9 Sur 22 Sur 0 -- -- 59
2019-04-07 23:00:00 10.7 9 Sur 25 Sudeste 0 -- -- 63
2019-04-07 22:00:00 10.2 9 Sudeste 18 Sur 0.2 -- -- 78
2019-04-07 21:00:00 13.1 5 Sudoeste 23 Sudoeste 0 -- -- 54
2019-04-07 20:00:00 12.6 4 Oeste 12 Nordeste 0 -- -- 58
2019-04-07 19:00:00 13 8 Norte 17 Nordeste 0 -- -- 55
2019-04-07 18:00:00 13.9 8 Nordeste 25 Nordeste 0 -- -- 52
2019-04-07 17:00:00 14.7 12 Norte 28 Norte 0 -- -- 53
2019-04-07 16:00:00 15.1 13 Norte 25 Norte 0 -- -- 50
2019-04-07 15:00:00 15.6 10 Norte 18 Noroeste 0 -- -- 48
2019-04-07 14:00:00 14.6 9 Nordeste 17 Nordeste 0 -- -- 50
2019-04-07 13:00:00 13.7 6 Oeste 10 Norte 0 -- -- 48
2019-04-07 12:00:00 11.5 3 Noroeste 6 Norte 0 -- -- 64
2019-04-07 11:00:00 8.8 0 Calma 6 Este 0.2 -- -- 76
2019-04-07 10:00:00 5.6 0 Calma 4 Noroeste 0 -- -- 95
2019-04-07 09:00:00 4.4 3 Sudeste 9 Sudeste 0 -- -- 96
2019-04-07 08:00:00 4.1 3 Sur 6 Sur 0 -- -- 97
2019-04-07 07:00:00 4.5 2 Sur 6 Sudeste 0 -- -- 96
2019-04-07 06:00:00 4.7 0 Calma 5 Sudoeste 0 -- -- 97
2019-04-07 05:00:00 4.8 2 Oeste 6 Sudeste 0 -- -- 96
2019-04-07 04:00:00 5 0 Calma 8 Sudeste 0.2 -- -- 96
2019-04-07 03:00:00 5 0 Calma 5 Norte 0.8 -- -- 96
2019-04-07 02:00:00 5 0 Calma 6 Este 0.4 -- -- 95
2019-04-07 01:00:00 4.9 2 Este 8 Sudeste 0.4 -- -- 94
2019-04-07 00:00:00 4.9 4 Sudeste 7 Sudeste 0 -- -- 94
2019-04-06 23:00:00 4.9 2 Sudeste 13 Sudeste 0 -- -- 92
2019-04-06 22:00:00 5 0 Calma 8 Sudeste 0 -- -- 92
2019-04-06 21:00:00 6.4 4 Sudeste 11 Este 0.2 -- -- 88
2019-04-06 20:00:00 6.8 0 Calma 23 Sudeste 1.8 -- -- 86
2019-04-06 19:00:00 7.9 6 Este 39 Norte 2 -- -- 76
2019-04-06 18:00:00 11.3 15 Norte 33 Norte 0 -- -- 57
2019-04-06 17:00:00 12.5 13 Norte 31 Norte 0 -- -- 46
2019-04-06 16:00:00 15.4 3 Nordeste 13 Sur 0 -- -- 34
2019-04-06 15:00:00 14.1 9 Sudeste 20 Sudoeste 0 -- -- 37
2019-04-06 14:00:00 13.2 8 Oeste 26 Sur 0 -- -- 41
2019-04-06 13:00:00 12.8 9 Sur 25 Sudeste 0 -- -- 42
2019-04-06 12:00:00 12.4 13 Sudeste 23 Sudeste 0 -- -- 42
2019-04-06 11:00:00 11.2 11 Sudeste 20 Sudeste 0 -- -- 51
2019-04-06 10:00:00 3.1 0 Calma 5 Oeste 0 -- -- 97
2019-04-06 09:00:00 0.9 0 Calma 5 Sudoeste 0 -- -- 96
2019-04-06 08:00:00 0.4 0 Calma 4 Sudeste 0 -- -- 95
2019-04-06 07:00:00 0.2 2 Este 7 Este 0 -- -- 94
2019-04-06 06:00:00 0.7 0 Calma 6 Oeste 0 -- -- 94
2019-04-06 05:00:00 1.2 3 Noroeste 5 Noroeste 0 -- -- 92
2019-04-06 04:00:00 2.1 2 Nordeste 5 Sudoeste 0 -- -- 90
2019-04-06 03:00:00 3.4 0 Calma 8 Sur 0 -- -- 85
2019-04-06 02:00:00 5.2 3 Sur 14 Sudeste 0 -- -- 80
2019-04-06 01:00:00 6.3 10 Sudeste 15 Sudeste 0 -- -- 77
2019-04-06 00:00:00 7 6 Sur 12 Noroeste 0 -- -- 75
2019-04-05 23:00:00 8.9 5 Noroeste 26 Norte 0 -- -- 66
2019-04-05 22:00:00 9.6 17 Norte 35 Norte 0 -- -- 63
2019-04-05 21:00:00 11.2 12 Norte 32 Norte 0 -- -- 61
2019-04-05 20:00:00 12.2 15 Norte 27 Norte 0 -- -- 56
2019-04-05 19:00:00 15.4 4 Nordeste 28 Sudoeste 0 -- -- 28
2019-04-05 18:00:00 15.2 15 Sur 41 Sudeste 0 -- -- 28
2019-04-05 17:00:00 15.4 8 Sur 29 Sur 0 -- -- 28
2019-04-05 16:00:00 15.5 10 Sudoeste 34 Sur 0 -- -- 33
2019-04-05 15:00:00 14.7 9 Sur 31 Sur 0 -- -- 36
2019-04-05 14:00:00 14.7 7 Sudoeste 29 Oeste 0 -- -- 33
2019-04-05 13:00:00 14.5 7 Noroeste 37 Sur 0 -- -- 34
2019-04-05 12:00:00 12.5 2 Sudoeste 11 Noroeste 0 -- -- 63
2019-04-05 11:00:00 9.7 3 Sudoeste 6 Este 0 -- -- 68
2019-04-05 10:00:00 6 0 Calma 3 Sudeste 0 -- -- 88
2019-04-05 09:00:00 4.3 0 Calma 4 Este 0 -- -- 90
2019-04-05 08:00:00 4.3 2 Oeste 6 Sudeste 0 -- -- 87
2019-04-05 07:00:00 6 0 Calma 6 Sudeste 0 -- -- 81
2019-04-05 06:00:00 7.2 3 Sur 10 Sur 0 -- -- 74
2019-04-05 05:00:00 8.2 4 Oeste 22 Sudeste 0 -- -- 66
2019-04-05 04:00:00 8.5 10 Sur 18 Sur 0 -- -- 63
2019-04-05 03:00:00 8.4 6 Sudeste 17 Sur 0 -- -- 64
2019-04-05 02:00:00 9.5 11 Sudoeste 25 Sudoeste 0 -- -- 57
2019-04-05 01:00:00 9.6 6 Sudoeste 29 Oeste 0 -- -- 57
2019-04-05 00:00:00 10.1 14 Sur 25 Sudeste 0 -- -- 54
2019-04-04 23:00:00 10.1 9 Sur 21 Sur 0 -- -- 54
2019-04-04 22:00:00 10.3 7 Sur 18 Sudoeste 0 -- -- 56
2019-04-04 21:00:00 11.1 5 Sudoeste 22 Sudoeste 0 -- -- 49
2019-04-04 20:00:00 11.6 6 Sudoeste 26 Oeste 0 -- -- 46
2019-04-04 19:00:00 12.6 10 Sudoeste 28 Oeste 0 -- -- 39
2019-04-04 18:00:00 13.2 13 Sur 30 Sur 0 -- -- 37
2019-04-04 17:00:00 13.5 11 Oeste 28 Oeste 0 -- -- 37
2019-04-04 16:00:00 14.1 10 Sur 28 Sur 0 -- -- 38
2019-04-04 15:00:00 13.1 14 Sudeste 27 Sudeste 0 -- -- 39
2019-04-04 14:00:00 11.9 7 Sudeste 14 Sudeste 0 -- -- 54
2019-04-04 13:00:00 9.3 5 Sudeste 11 Sudeste 0 -- -- 68
2019-04-04 12:00:00 6.7 4 Sudeste 11 Sur 0 -- -- 76
2019-04-04 11:00:00 4.8 4 Este 8 Oeste 0.2 -- -- 82
2019-04-04 10:00:00 2.2 0 Calma 5 Noroeste 0.4 -- -- 99
2019-04-04 09:00:00 0.7 0 Calma 10 Sudeste 0 -- -- 98
2019-04-04 08:00:00 0.6 0 Calma 8 Sudeste 0.2 -- -- 98
2019-04-04 07:00:00 0.6 3 Nordeste 6 Sudoeste 0 -- -- 98
2019-04-04 06:00:00 0.6 0 Calma 13 Sudeste 0 -- -- 97
2019-04-04 05:00:00 0.8 4 Sudoeste 9 Sudoeste 0 -- -- 97
2019-04-04 04:00:00 1.1 3 Sur 12 Este 0.2 -- -- 97
2019-04-04 03:00:00 1.2 5 Sur 9 Sur 0.2 -- -- 96
2019-04-04 02:00:00 1.2 3 Norte 31 Este 1.6 -- -- 95
2019-04-04 01:00:00 0.8 3 Sudeste 8 Este 1 -- -- 95
2019-04-04 00:00:00 1.5 3 Sur 9 Noroeste 0.8 -- -- 95
2019-04-03 23:00:00 1.6 3 Este 9 Nordeste 3.2 -- -- 93
2019-04-03 22:00:00 3.5 6 Este 9 Este 1 -- -- 91
2019-04-03 21:00:00 3.8 0 Calma 7 Sudeste 0.2 -- -- 93
2019-04-03 20:00:00 3.8 4 Sur 12 Sudeste 0.4 -- -- 91
2019-04-03 19:00:00 3.5 6 Sudoeste 14 Sudeste 0 -- -- 91
2019-04-03 18:00:00 2.9 4 Sudoeste 9 Sudeste 3.2 -- -- 89
2019-04-03 17:00:00 4.3 5 Sudoeste 22 Sudeste 2.4 -- -- 84
2019-04-03 16:00:00 7.3 4 Sur 14 Este 0 -- -- 72
2019-04-03 15:00:00 7.5 9 Sur 20 Sudoeste 0 -- -- 76
2019-04-03 14:00:00 5.9 6 Norte 35 Nordeste 1.2 -- -- 82
2019-04-03 13:00:00 7.6 6 Nordeste 10 Nordeste 0.2 -- -- 78
2019-04-03 12:00:00 7 6 Sudoeste 12 Nordeste 0.4 -- -- 81
2019-04-03 11:00:00 6.9 5 Norte 17 Nordeste 0.4 -- -- 75
2019-04-03 10:00:00 6.8 5 Sudoeste 11 Nordeste 0 -- -- 86
2019-04-03 09:00:00 6.3 5 Sudeste 12 Este 0.4 -- -- 90
2019-04-03 08:00:00 6.5 5 Sur 25 Nordeste 0.2 -- -- 85
2019-04-03 07:00:00 6.3 6 Sur 14 Sudeste 0 -- -- 90
2019-04-03 06:00:00 6.5 2 Sudeste 7 Sudoeste 0 -- -- 91
2019-04-03 05:00:00 7.4 0 Calma 9 Sudeste 0 -- -- 86
2019-04-03 04:00:00 8.4 3 Sudeste 15 Noroeste 0.2 -- -- 78
2019-04-03 03:00:00 8.5 2 Sudeste 11 Noroeste 0.2 -- -- 84
2019-04-03 02:00:00 9.7 5 Nordeste 17 Nordeste 0 -- -- 69
2019-04-03 01:00:00 10.1 5 Norte 20 Nordeste 0 -- -- 65
2019-04-03 00:00:00 10.4 8 Norte 26 Nordeste 0 -- -- 65
2019-04-02 23:00:00 10.4 3 Noroeste 18 Norte 0 -- -- 73
2019-04-02 22:00:00 10.8 11 Norte 24 Norte 0 -- -- 67
2019-04-02 21:00:00 11.1 8 Noroeste 23 Norte 0 -- -- 73
2019-04-02 20:00:00 11.6 10 Norte 28 Noroeste 0 -- -- 69
2019-04-02 19:00:00 11.9 10 Norte 35 Norte 0 -- -- 69
2019-04-02 18:00:00 12.4 11 Norte 30 Norte 0 -- -- 69
2019-04-02 17:00:00 14.2 15 Norte 35 Norte 0 -- -- 63
2019-04-02 16:00:00 14.8 14 Norte 37 Norte 0 -- -- 58
2019-04-02 15:00:00 15.7 13 Norte 35 Norte 0 -- -- 55
2019-04-02 14:00:00 15.8 12 Norte 31 Norte 0 -- -- 55
2019-04-02 13:00:00 15.2 13 Norte 27 Norte 0 -- -- 56
2019-04-02 12:00:00 13.2 3 Sur 6 Sudoeste 0 -- -- 62
2019-04-02 11:00:00 8.2 0 Calma 6 Noroeste 0 -- -- 79
2019-04-02 10:00:00 2.6 2 Sur 5 Sur 0 -- -- 98
2019-04-02 09:00:00 0.4 0 Calma 5 Noroeste 0 -- -- 96
2019-04-02 08:00:00 0.4 0 Calma 4 Oeste 0 -- -- 95
2019-04-02 07:00:00 0.8 0 Calma 3 Sudeste 0 -- -- 94
2019-04-02 06:00:00 1.3 0 Calma 3 Sur 0 -- -- 94
2019-04-02 05:00:00 1.9 2 Norte 5 Noroeste 0 -- -- 93
2019-04-02 04:00:00 2.5 0 Calma 3 Noroeste 0 -- -- 91
2019-04-02 03:00:00 3.5 0 Calma 4 Sudoeste 0 -- -- 89
2019-04-02 02:00:00 4.5 0 Calma 3 Sur 0 -- -- 86
2019-04-02 01:00:00 6 0 Calma 3 Sudoeste 0 -- -- 81
2019-04-02 00:00:00 7.7 0 Calma 5 Sur 0 -- -- 76
2019-04-01 23:00:00 9.8 5 Sudeste 10 Sur 0 -- -- 67
2019-04-01 22:00:00 12.6 4 Norte 26 Norte 0 -- -- 57
2019-04-01 21:00:00 14.5 11 Norte 25 Nordeste 0 -- -- 50
2019-04-01 20:00:00 15.3 16 Norte 33 Norte 0 -- -- 48
2019-04-01 19:00:00 15.8 16 Norte 35 Nordeste 0 -- -- 51
2019-04-01 18:00:00 17 15 Norte 35 Norte 0 -- -- 49
2019-04-01 17:00:00 17.6 15 Norte 34 Nordeste 0 -- -- 47
2019-04-01 16:00:00 17.9 15 Norte 30 Norte 0 -- -- 41
2019-04-01 15:00:00 17.6 13 Nordeste 26 Norte 0 -- -- 43
2019-04-01 14:00:00 16.4 11 Norte 22 Norte 0 -- -- 48
2019-04-01 13:00:00 12.6 2 Sur 4 Sur 0 -- -- 57
2019-04-01 12:00:00 8.5 0 Calma 3 Noroeste 0 -- -- 71
2019-04-01 11:00:00 4.3 0 Calma 3 Sudeste 0 -- -- 92
2019-04-01 10:00:00 1.2 2 Sur 3 Sudoeste 0 -- -- 96
2019-04-01 09:00:00 0 0 Calma 2 Oeste 0 -- -- 95
2019-04-01 08:00:00 0.1 0 Calma 2 Oeste 0 -- -- 94
2019-04-01 07:00:00 0.6 0 Calma 3 Sur 0 -- -- 93
2019-04-01 06:00:00 1.1 0 Calma 3 Sudeste 0 -- -- 92
2019-04-01 05:00:00 1.8 0 Calma 3 Este 0 -- -- 91
2019-04-01 04:00:00 2.4 0 Calma 3 Sur 0 -- -- 89
2019-04-01 03:00:00 3.3 0 Calma 3 Sudoeste 0 -- -- 87
2019-04-01 02:00:00 4.5 0 Calma 3 Oeste 0 -- -- 84
2019-04-01 01:00:00 5.9 0 Calma 2 Oeste 0 -- -- 78
2019-04-01 00:00:00 7.8 0 Calma 4 Sur 0 -- -- 70
2019-03-31 23:00:00 10.9 4 Sur 14 Sudeste 0 -- -- 59
2019-03-31 22:00:00 13.7 9 Sudeste 16 Nordeste 0 -- -- 50
2019-03-31 21:00:00 15.8 5 Norte 19 Norte 0 -- -- 41
2019-03-31 20:00:00 17.5 12 Norte 24 Norte 0 -- -- 41
2019-03-31 19:00:00 18.9 8 Oeste 32 Norte 0 -- -- 38
2019-03-31 18:00:00 20 10 Norte 26 Norte 0 -- -- 36
2019-03-31 17:00:00 19.8 7 Norte 32 Norte 0 -- -- 41
2019-03-31 16:00:00 20.1 12 Norte 26 Norte 0 -- -- 37
2019-03-31 15:00:00 20.2 13 Norte 26 Norte 0 -- -- 29
2019-03-31 14:00:00 19.5 10 Norte 24 Noroeste 0 -- -- 32
2019-03-31 13:00:00 19.3 3 Sur 6 Oeste 0 -- -- 40
2019-03-31 12:00:00 15.1 0 Calma 5 Sudeste 0 -- -- 53
2019-03-31 11:00:00 10.4 0 Calma 3 Sudeste 0 -- -- 70
2019-03-31 10:00:00 4.3 0 Calma 2 Sudeste 0 -- -- 97
2019-03-31 09:00:00 2.6 0 Calma 3 Sudeste 0 -- -- 95
2019-03-31 08:00:00 3.1 0 Calma 2 Sudeste 0 -- -- 93
2019-03-31 07:00:00 3.9 0 Calma 3 Sur 0 -- -- 91
2019-03-31 06:00:00 5.2 0 Calma 2 Sur 0 -- -- 90
2019-03-31 05:00:00 6.5 0 Calma 5 Sur 0 -- -- 87
2019-03-31 03:00:00 7.2 0 Calma 3 Sudoeste 0 -- -- 85
2019-03-31 01:00:00 8.4 0 Calma 3 Oeste 0 -- -- 81
2019-03-31 00:00:00 9.8 0 Calma 3 Oeste 0 -- -- 78
2019-03-30 23:00:00 10.9 2 Noroeste 5 Sudoeste 0 -- -- 74
2019-03-30 22:00:00 11.6 0 Calma 5 Sudeste 0 -- -- 70
2019-03-30 21:00:00 12.7 0 Calma 9 Sudoeste 0 -- -- 65
2019-03-30 20:00:00 15.2 4 Sur 22 Nordeste 0 -- -- 55
2019-03-30 19:00:00 16.9 11 Norte 28 Norte 0 -- -- 45
2019-03-30 18:00:00 17.5 17 Norte 35 Noroeste 0 -- -- 43
2019-03-30 17:00:00 18.3 15 Norte 29 Noroeste 0 -- -- 43
2019-03-30 16:00:00 20.6 15 Norte 31 Norte 0 -- -- 44
2019-03-30 15:00:00 21.3 12 Noroeste 24 Este 0 -- -- 38
2019-03-30 14:00:00 22.2 8 Norte 18 Norte 0 -- -- 30
2019-03-30 13:00:00 20.8 4 Sur 16 Sur 0 -- -- 29
2019-03-30 12:00:00 18.7 10 Sur 15 Sudeste 0 -- -- 33
2019-03-30 11:00:00 14.2 5 Sur 10 Sur 0 -- -- 58
2019-03-30 10:00:00 6.6 0 Calma 3 Este 0 -- -- 86
2019-03-30 09:00:00 3.9 0 Calma 2 Noroeste 0 -- -- 97
2019-03-30 08:00:00 1.9 0 Calma 3 Sudeste 0 -- -- 97
2019-03-30 07:00:00 0.9 0 Calma 3 Nordeste 0 -- -- 96
2019-03-30 06:00:00 1.3 0 Calma 3 Sudeste 0 -- -- 95
2019-03-30 05:00:00 1.8 2 Sur 4 Sur 0 -- -- 94
2019-03-30 04:00:00 2.1 0 Calma 5 Sur 0 -- -- 93
2019-03-30 03:00:00 2.6 0 Calma 4 Sudeste 0 -- -- 93
2019-03-30 02:00:00 3.6 2 Sur 4 Oeste 0 -- -- 92
2019-03-30 01:00:00 4.4 0 Calma 4 Sur 0 -- -- 90
2019-03-30 00:00:00 5.4 0 Calma 3 Oeste 0 -- -- 87
2019-03-29 23:00:00 6.6 0 Calma 4 Sudoeste 0 -- -- 84
2019-03-29 22:00:00 8.4 0 Calma 5 Sur 0 -- -- 77
2019-03-29 21:00:00 10.7 2 Sur 6 Sur 0 -- -- 71
2019-03-29 20:00:00 13.5 3 Este 22 Norte 0 -- -- 62
2019-03-29 19:00:00 16 15 Norte 29 Norte 0 -- -- 54
2019-03-29 18:00:00 18.1 19 Norte 35 Norte 0 -- -- 49
2019-03-29 17:00:00 19.3 14 Norte 39 Noroeste 0 -- -- 46
2019-03-29 16:00:00 19.7 17 Norte 36 Norte 0 -- -- 43
2019-03-29 15:00:00 19.7 13 Norte 29 Noroeste 0 -- -- 41
2019-03-29 14:00:00 19.1 18 Norte 31 Norte 0 -- -- 40
2019-03-29 13:00:00 18.8 9 Norte 22 Nordeste 0 -- -- 39
2019-03-29 12:00:00 15.7 4 Noroeste 10 Noroeste 0 -- -- 48
2019-03-29 11:00:00 11.1 0 Calma 5 Sudeste 0 -- -- 61
2019-03-29 10:00:00 7 0 Calma 4 Sudeste 0 -- -- 81
2019-03-29 09:00:00 0.7 0 Calma 3 Noroeste 0 -- -- 99
2019-03-29 08:00:00 -0.3 2 Sur 3 Oeste 0 -- -- 97
2019-03-29 07:00:00 -0.4 0 Calma 2 Oeste 0 -- -- 96
2019-03-29 06:00:00 0.1 0 Calma 3 Este 0 -- -- 96
2019-03-29 05:00:00 0.6 0 Calma 3 Sudeste 0 -- -- 95
2019-03-29 04:00:00 1.2 0 Calma 3 Oeste 0 -- -- 95
2019-03-29 03:00:00 1.9 0 Calma 3 Sur 0 -- -- 94
2019-03-29 02:00:00 2.4 2 Norte 5 Noroeste 0 -- -- 93
2019-03-29 01:00:00 3.2 0 Calma 3 Sur 0 -- -- 92
2019-03-29 00:00:00 4.2 0 Calma 3 Oeste 0 -- -- 90
2019-03-28 23:00:00 5.5 0 Calma 4 Sur 0 -- -- 88
2019-03-28 22:00:00 7.2 3 Sur 5 Sur 0 -- -- 83
2019-03-28 21:00:00 9.6 3 Sur 19 Norte 0 -- -- 77
2019-03-28 20:00:00 12.2 9 Noroeste 33 Norte 0 -- -- 70
2019-03-28 19:00:00 13.7 10 Norte 26 Noroeste 0 -- -- 64
2019-03-28 18:00:00 15.8 12 Noroeste 33 Noroeste 0 -- -- 56
2019-03-28 17:00:00 16.6 13 Noroeste 44 Noroeste 0 -- -- 54
2019-03-28 16:00:00 17.1 13 Norte 34 Norte 0 -- -- 51
2019-03-28 15:00:00 17.4 14 Norte 35 Norte 0 -- -- 46
2019-03-28 14:00:00 17 14 Noroeste 34 Norte 0 -- -- 50
2019-03-28 13:00:00 16.1 14 Norte 31 Norte 0 -- -- 46
2019-03-28 12:00:00 14.5 4 Sur 7 Sudeste 0 -- -- 50
2019-03-28 11:00:00 10.3 0 Calma 5 Sudeste 0 -- -- 61
2019-03-28 10:00:00 5.5 0 Calma 4 Sur 0 -- -- 79
2019-03-28 09:00:00 -0.6 0 Calma 4 Sudeste 0 -- -- 98
2019-03-28 08:00:00 -1.4 0 Calma 4 Este 0 -- -- 96
2019-03-28 07:00:00 -1.3 0 Calma 4 Este 0 -- -- 96
2019-03-28 06:00:00 -0.9 0 Calma 2 Oeste 0 -- -- 96
2019-03-28 05:00:00 -0.6 0 Calma 3 Este 0 -- -- 95
2019-03-28 04:00:00 0 0 Calma 3 Norte 0 -- -- 95
2019-03-28 03:00:00 0.6 0 Calma 3 Sur 0 -- -- 93
2019-03-28 02:00:00 1.4 0 Calma 2 Oeste 0 -- -- 93
2019-03-28 01:00:00 2.2 0 Calma 3 Este 0 -- -- 91
2019-03-28 00:00:00 3.3 0 Calma 4 Noroeste 0 -- -- 88
2019-03-27 23:00:00 4.8 2 Sudoeste 4 Sur 0 -- -- 85
2019-03-27 22:00:00 6.7 2 Sur 6 Sur 0 -- -- 81
2019-03-27 21:00:00 9.1 0 Calma 23 Norte 0 -- -- 73
2019-03-27 20:00:00 10.9 7 Norte 37 Noroeste 0 -- -- 68
2019-03-27 19:00:00 12.4 14 Norte 44 Norte 0 -- -- 62
2019-03-27 18:00:00 14.4 20 Norte 42 Noroeste 0 -- -- 55
2019-03-27 17:00:00 15.6 17 Noroeste 50 Norte 0 -- -- 51
2019-03-27 16:00:00 16.3 17 Norte 40 Norte 0 -- -- 50
2019-03-27 15:00:00 17 14 Norte 35 Norte 0 -- -- 45
2019-03-27 14:00:00 16.6 15 Norte 35 Norte 0 -- -- 39
2019-03-27 13:00:00 16.3 17 Norte 37 Norte 0 -- -- 30
2019-03-27 12:00:00 14.2 3 Sur 6 Sudoeste 0 -- -- 35
2019-03-27 11:00:00 9.4 2 Sudoeste 5 Nordeste 0 -- -- 52
2019-03-27 10:00:00 4.9 2 Sudeste 6 Este 0 -- -- 69
2019-03-27 09:00:00 -1.4 0 Calma 4 Este 0 -- -- 95
2019-03-27 08:00:00 -2.2 0 Calma 6 Oeste 0 -- -- 94
2019-03-27 07:00:00 -2 2 Sudoeste 6 Oeste 0 -- -- 93
2019-03-27 06:00:00 -1.6 0 Calma 6 Este 0 -- -- 93
2019-03-27 05:00:00 -1 4 Sudoeste 10 Este 0 -- -- 93
2019-03-27 04:00:00 -0.9 2 Nordeste 8 Oeste 0 -- -- 93
2019-03-27 03:00:00 -0.2 0 Calma 6 Norte 0 -- -- 92
2019-03-27 02:00:00 0.3 0 Calma 3 Sudeste 0 -- -- 91
2019-03-27 01:00:00 1 2 Noroeste 5 Sudoeste 0 -- -- 88
2019-03-27 00:00:00 2.1 2 Sur 4 Este 0 -- -- 87
2019-03-26 23:00:00 3.2 0 Calma 6 Oeste 0 -- -- 84
2019-03-26 22:00:00 4.9 3 Sudoeste 8 Oeste 0 -- -- 78
2019-03-26 21:00:00 7.3 0 Calma 10 Sur 0 -- -- 70
2019-03-26 20:00:00 10.6 10 Noroeste 31 Norte 0 -- -- 57
2019-03-26 19:00:00 11.6 7 Norte 32 Noroeste 0 -- -- 56
2019-03-26 18:00:00 13.7 14 Noroeste 34 Noroeste 0 -- -- 49
2019-03-26 17:00:00 15.2 14 Noroeste 31 Norte 0 -- -- 44
2019-03-26 16:00:00 15.2 19 Noroeste 39 Noroeste 0 -- -- 46
2019-03-26 15:00:00 15.3 14 Norte 40 Norte 0 -- -- 46
2019-03-26 14:00:00 15.8 16 Norte 31 Norte 0 -- -- 37
2019-03-26 13:00:00 15.3 11 Norte 23 Norte 0 -- -- 35
2019-03-26 12:00:00 13.7 4 Norte 12 Norte 0 -- -- 45
2019-03-26 11:00:00 11.5 3 Noroeste 7 Nordeste 0 -- -- 56
2019-03-26 10:00:00 6.9 2 Norte 8 Noroeste 0 -- -- 76
2019-03-26 09:00:00 1.5 2 Sur 5 Sur 0 -- -- 94
2019-03-26 08:00:00 1 0 Calma 4 Noroeste 0 -- -- 92
2019-03-26 07:00:00 1.6 3 Noroeste 5 Sur 0 -- -- 89
2019-03-26 06:00:00 3.1 0 Calma 11 Sur 0 -- -- 87
2019-03-26 05:00:00 4.7 5 Sur 9 Sudeste 0 -- -- 85
2019-03-26 04:00:00 5.4 0 Calma 6 Sudoeste 0 -- -- 83
2019-03-26 03:00:00 6.2 4 Sudeste 7 Sudeste 0 -- -- 79
2019-03-26 02:00:00 5.9 3 Oeste 17 Sudeste 0 -- -- 82
2019-03-26 01:00:00 5.4 9 Sudeste 15 Sudeste 0 -- -- 81
2019-03-26 00:00:00 5.9 6 Sudeste 13 Sudeste 0 -- -- 79
2019-03-25 23:00:00 8.4 11 Norte 25 Noroeste 0 -- -- 68
2019-03-25 22:00:00 9.1 12 Noroeste 27 Norte 0 -- -- 70
2019-03-25 21:00:00 9.8 16 Norte 40 Norte 0 -- -- 69
2019-03-25 20:00:00 10.4 15 Noroeste 33 Norte 0 -- -- 66
2019-03-25 19:00:00 11.5 14 Noroeste 36 Norte 0 -- -- 63
2019-03-25 18:00:00 13.2 18 Norte 38 Noroeste 0 -- -- 58
2019-03-25 17:00:00 13.8 17 Norte 33 Norte 0 -- -- 55
2019-03-25 16:00:00 14.6 15 Norte 33 Noroeste 0 -- -- 52
2019-03-25 15:00:00 14.4 17 Norte 37 Noroeste 0 -- -- 52
2019-03-25 14:00:00 14.4 17 Norte 32 Norte 0 -- -- 54
2019-03-25 13:00:00 14.4 12 Norte 25 Norte 0 -- -- 52
2019-03-25 12:00:00 13.1 14 Norte 27 Norte 0 -- -- 59
2019-03-25 11:00:00 11.6 8 Noroeste 17 Norte 0 -- -- 73
2019-03-25 10:00:00 8.3 2 Este 4 Sudeste 0 -- -- 81
2019-03-25 09:00:00 5.9 3 Noroeste 5 Noroeste 0 -- -- 90
2019-03-25 08:00:00 5 0 Calma 4 Norte 0 -- -- 91
2019-03-25 07:00:00 4.7 0 Calma 4 Sudeste 0 -- -- 91
2019-03-25 06:00:00 4.5 0 Calma 4 Oeste 0 -- -- 91
2019-03-25 05:00:00 3.8 0 Calma 5 Sur 0 -- -- 94
2019-03-25 04:00:00 2.5 0 Calma 4 Oeste 0 -- -- 94
2019-03-25 03:00:00 3 0 Calma 4 Oeste 0 -- -- 92
2019-03-25 02:00:00 3.7 0 Calma 4 Noroeste 0 -- -- 91
2019-03-25 01:00:00 4.6 0 Calma 4 Norte 0 -- -- 89
2019-03-25 00:00:00 5.9 0 Calma 3 Oeste 0 -- -- 84